PWSweather.com
Personal Weather Stations
Station Observations

SkegnessGB

Lat: 53.147585, Lon: 0.345774

Elevation: 18

Station Type: Fine Offset WH3080

http://www.skegnessweather.info/

High Low Average
Temperature 72.7°F22.6°C 57.2°F14.0°C 62.2°F16.8°C
Dew Point 56.3°F13.5°C 51.0°F10.6°C 53.0°F11.7°C
Winds 6.0 mph 9.7 kmh 0.6 mph 1.0 kmh 3.0 mph SSW4.8 kmh SSW
Wind Gusts 9.1 mph14.6 kmh 1.7 mph2.7 kmh 6.0 mph9.7 kmh
Humidity 85% 51% 73%
Pressure 30.15 in1021.0 mb 29.76 in1007.8 mb -
Precipitation 0.00 in0.0 mm - -
Hour Temp Dew Point Humidity Winds Wind Gusts Pressure Precip Precip Rate Daily Precip Total
12:00 AM 57.6°F14.2°C 53.1°F11.7°C 85% 3.3 mph NW5.3 kmh NW 5.9 mph9.5 kmh 30.15 in1021.0 mb 0.00 in0.0 mm 0.00 in0.0 mm 0.00 in0.0 mm
12:10 AM 57.6°F14.2°C 53.1°F11.7°C 85% 5.6 mph NE9.0 kmh NE 4.2 mph6.8 kmh 30.14 in1020.7 mb 0.00 in0.0 mm 0.00 in0.0 mm 0.00 in0.0 mm
12:20 AM 57.6°F14.2°C 52.8°F11.6°C 84% 3.9 mph N6.3 kmh N 7.6 mph12.2 kmh 30.14 in1020.7 mb 0.00 in0.0 mm 0.00 in0.0 mm 0.00 in0.0 mm
12:30 AM 57.6°F14.2°C 52.4°F11.3°C 83% 3.3 mph NNW5.3 kmh NNW 4.9 mph7.9 kmh 30.14 in1020.7 mb 0.00 in0.0 mm 0.00 in0.0 mm 0.00 in0.0 mm
12:40 AM 57.7°F14.3°C 52.3°F11.3°C 82% 4.0 mph WNW6.4 kmh WNW 5.9 mph9.5 kmh 30.13 in1020.3 mb 0.00 in0.0 mm 0.00 in0.0 mm 0.00 in0.0 mm
12:50 AM 57.6°F14.2°C 52.1°F11.2°C 82% 2.5 mph SSE4.0 kmh SSE 4.2 mph6.8 kmh 30.14 in1020.7 mb 0.00 in0.0 mm 0.00 in0.0 mm 0.00 in0.0 mm
01:00 AM 57.6°F14.2°C 52.1°F11.2°C 82% 4.3 mph WNW6.9 kmh WNW 8.4 mph13.5 kmh 30.13 in1020.3 mb 0.00 in0.0 mm 0.00 in0.0 mm 0.00 in0.0 mm
01:10 AM 57.4°F14.1°C 51.9°F11.1°C 82% 1.9 mph E3.1 kmh E 4.9 mph7.9 kmh 30.13 in1020.3 mb 0.00 in0.0 mm 0.00 in0.0 mm 0.00 in0.0 mm
01:20 AM 57.4°F14.1°C 51.9°F11.1°C 82% 2.5 mph NNW4.0 kmh NNW 4.9 mph7.9 kmh 30.13 in1020.3 mb 0.00 in0.0 mm 0.00 in0.0 mm 0.00 in0.0 mm
01:30 AM 57.4°F14.1°C 51.9°F11.1°C 82% 2.9 mph S4.7 kmh S 4.9 mph7.9 kmh 30.12 in1020.0 mb 0.00 in0.0 mm 0.00 in0.0 mm 0.00 in0.0 mm
01:40 AM 57.4°F14.1°C 51.9°F11.1°C 82% 2.2 mph NNW3.5 kmh NNW 4.2 mph6.8 kmh 30.11 in1019.6 mb 0.00 in0.0 mm 0.00 in0.0 mm 0.00 in0.0 mm
01:50 AM 57.4°F14.1°C 51.9°F11.1°C 82% 3.7 mph NNE6.0 kmh NNE 6.6 mph10.6 kmh 30.11 in1019.6 mb 0.00 in0.0 mm 0.00 in0.0 mm 0.00 in0.0 mm
02:00 AM 57.4°F14.1°C 52.3°F11.3°C 83% 2.2 mph W3.5 kmh W 4.2 mph6.8 kmh 30.11 in1019.6 mb 0.00 in0.0 mm 0.00 in0.0 mm 0.00 in0.0 mm
02:10 AM 57.4°F14.1°C 52.3°F11.3°C 83% 1.4 mph NW2.3 kmh NW 3.4 mph5.5 kmh 30.10 in1019.3 mb 0.00 in0.0 mm 0.00 in0.0 mm 0.00 in0.0 mm
02:20 AM 57.4°F14.1°C 52.3°F11.3°C 83% 4.0 mph E6.4 kmh E 5.9 mph9.5 kmh 30.10 in1019.3 mb 0.00 in0.0 mm 0.00 in0.0 mm 0.00 in0.0 mm
02:30 AM 57.4°F14.1°C 51.9°F11.1°C 82% 3.2 mph E5.1 kmh E 4.9 mph7.9 kmh 30.09 in1019.0 mb 0.00 in0.0 mm 0.00 in0.0 mm 0.00 in0.0 mm
02:40 AM 57.4°F14.1°C 51.9°F11.1°C 82% 3.8 mph SE6.1 kmh SE 4.9 mph7.9 kmh 30.09 in1019.0 mb 0.00 in0.0 mm 0.00 in0.0 mm 0.00 in0.0 mm
02:50 AM 57.4°F14.1°C 51.9°F11.1°C 82% 3.5 mph NE5.6 kmh NE 5.9 mph9.5 kmh 30.09 in1019.0 mb 0.00 in0.0 mm 0.00 in0.0 mm 0.00 in0.0 mm
03:00 AM 57.4°F14.1°C 51.9°F11.1°C 82% 3.0 mph SW4.8 kmh SW 6.6 mph10.6 kmh 30.09 in1019.0 mb 0.00 in0.0 mm 0.00 in0.0 mm 0.00 in0.0 mm
03:10 AM 57.6°F14.2°C 52.1°F11.2°C 82% 3.6 mph W5.8 kmh W 8.4 mph13.5 kmh 30.09 in1019.0 mb 0.00 in0.0 mm 0.00 in0.0 mm 0.00 in0.0 mm
03:20 AM 57.6°F14.2°C 52.1°F11.2°C 82% 4.7 mph E7.6 kmh E 9.1 mph14.6 kmh 30.08 in1018.6 mb 0.00 in0.0 mm 0.00 in0.0 mm 0.00 in0.0 mm
03:30 AM 57.6°F14.2°C 52.1°F11.2°C 82% 4.0 mph S6.4 kmh S 7.6 mph12.2 kmh 30.07 in1018.3 mb 0.00 in0.0 mm 0.00 in0.0 mm 0.00 in0.0 mm
03:40 AM 57.6°F14.2°C 51.8°F11.0°C 81% 3.7 mph S6.0 kmh S 6.6 mph10.6 kmh 30.07 in1018.3 mb 0.00 in0.0 mm 0.00 in0.0 mm 0.00 in0.0 mm
03:50 AM 57.6°F14.2°C 52.1°F11.2°C 82% 3.1 mph N5.0 kmh N 5.9 mph9.5 kmh 30.06 in1017.9 mb 0.00 in0.0 mm 0.00 in0.0 mm 0.00 in0.0 mm
04:00 AM 57.6°F14.2°C 51.8°F11.0°C 81% 3.3 mph WSW5.3 kmh WSW 6.6 mph10.6 kmh 30.06 in1017.9 mb 0.00 in0.0 mm 0.00 in0.0 mm 0.00 in0.0 mm
04:10 AM 57.6°F14.2°C 51.8°F11.0°C 81% 4.6 mph NNE7.4 kmh NNE 9.1 mph14.6 kmh 30.06 in1017.9 mb 0.00 in0.0 mm 0.00 in0.0 mm 0.00 in0.0 mm
04:20 AM 57.7°F14.3°C 51.9°F11.1°C 81% 5.7 mph NE9.2 kmh NE 9.1 mph14.6 kmh 30.05 in1017.6 mb 0.00 in0.0 mm 0.00 in0.0 mm 0.00 in0.0 mm
04:30 AM 57.7°F14.3°C 51.6°F10.9°C 80% 4.6 mph E7.4 kmh E 8.4 mph13.5 kmh 30.06 in1017.9 mb 0.00 in0.0 mm 0.00 in0.0 mm 0.00 in0.0 mm
04:40 AM 57.6°F14.2°C 51.4°F10.8°C 80% 3.0 mph NE4.8 kmh NE 8.4 mph13.5 kmh 30.06 in1017.9 mb 0.00 in0.0 mm 0.00 in0.0 mm 0.00 in0.0 mm
04:50 AM 57.4°F14.1°C 51.3°F10.7°C 80% 2.4 mph WNW3.9 kmh WNW 3.4 mph5.5 kmh 30.05 in1017.6 mb 0.00 in0.0 mm 0.00 in0.0 mm 0.00 in0.0 mm
05:00 AM 57.4°F14.1°C 51.6°F10.9°C 81% 3.3 mph NNE5.3 kmh NNE 5.9 mph9.5 kmh 30.05 in1017.6 mb 0.00 in0.0 mm 0.00 in0.0 mm 0.00 in0.0 mm
05:10 AM 57.4°F14.1°C 51.6°F10.9°C 81% 5.1 mph WSW8.2 kmh WSW 8.4 mph13.5 kmh 30.05 in1017.6 mb 0.00 in0.0 mm 0.00 in0.0 mm 0.00 in0.0 mm
05:20 AM 57.2°F14.0°C 51.4°F10.8°C 81% 3.3 mph SE5.3 kmh SE 8.4 mph13.5 kmh 30.05 in1017.6 mb 0.00 in0.0 mm 0.00 in0.0 mm 0.00 in0.0 mm
05:30 AM 57.4°F14.1°C 51.6°F10.9°C 81% 3.8 mph NNE6.1 kmh NNE 6.6 mph10.6 kmh 30.05 in1017.6 mb 0.00 in0.0 mm 0.00 in0.0 mm 0.00 in0.0 mm
05:40 AM 57.4°F14.1°C 51.6°F10.9°C 81% 4.9 mph E7.9 kmh E 6.6 mph10.6 kmh 30.05 in1017.6 mb 0.00 in0.0 mm 0.00 in0.0 mm 0.00 in0.0 mm
05:50 AM 57.4°F14.1°C 51.6°F10.9°C 81% 2.9 mph N4.7 kmh N 5.9 mph9.5 kmh 30.04 in1017.3 mb 0.00 in0.0 mm 0.00 in0.0 mm 0.00 in0.0 mm
06:00 AM 57.4°F14.1°C 51.6°F10.9°C 81% 3.7 mph NW6.0 kmh NW 6.6 mph10.6 kmh 30.04 in1017.3 mb 0.00 in0.0 mm 0.00 in0.0 mm 0.00 in0.0 mm
06:10 AM 57.4°F14.1°C 51.6°F10.9°C 81% 2.7 mph N4.3 kmh N 3.4 mph5.5 kmh 30.04 in1017.3 mb 0.00 in0.0 mm 0.00 in0.0 mm 0.00 in0.0 mm
06:20 AM 57.6°F14.2°C 51.8°F11.0°C 81% 3.7 mph NE6.0 kmh NE 8.4 mph13.5 kmh 30.04 in1017.3 mb 0.00 in0.0 mm 0.00 in0.0 mm 0.00 in0.0 mm
07:00 AM 58.3°F14.6°C 52.1°F11.2°C 80% 2.7 mph SW4.3 kmh SW 6.6 mph10.6 kmh 30.04 in1017.3 mb 0.00 in0.0 mm 0.00 in0.0 mm 0.00 in0.0 mm
07:10 AM 58.5°F14.7°C 52.3°F11.3°C 80% 2.6 mph ENE4.2 kmh ENE 6.6 mph10.6 kmh 30.04 in1017.3 mb 0.00 in0.0 mm 0.00 in0.0 mm 0.00 in0.0 mm
07:20 AM 58.6°F14.8°C 52.5°F11.4°C 80% 3.6 mph SSW5.8 kmh SSW 6.6 mph10.6 kmh 30.04 in1017.3 mb 0.00 in0.0 mm 0.00 in0.0 mm 0.00 in0.0 mm
07:30 AM 58.8°F14.9°C 52.7°F11.5°C 80% 4.4 mph E7.1 kmh E 4.9 mph7.9 kmh 30.03 in1016.9 mb 0.00 in0.0 mm 0.00 in0.0 mm 0.00 in0.0 mm
07:40 AM 59.0°F15.0°C 52.5°F11.4°C 79% 3.0 mph SSE4.8 kmh SSE 7.6 mph12.2 kmh 30.04 in1017.3 mb 0.00 in0.0 mm 0.00 in0.0 mm 0.00 in0.0 mm
07:50 AM 59.2°F15.1°C 52.7°F11.5°C 79% 2.5 mph SE4.0 kmh SE 5.9 mph9.5 kmh 30.03 in1016.9 mb 0.00 in0.0 mm 0.00 in0.0 mm 0.00 in0.0 mm
08:00 AM 59.5°F15.3°C 52.7°F11.5°C 78% 3.7 mph NW6.0 kmh NW 5.9 mph9.5 kmh 30.03 in1016.9 mb 0.00 in0.0 mm 0.00 in0.0 mm 0.00 in0.0 mm
08:10 AM 59.9°F15.5°C 53.0°F11.7°C 78% 4.9 mph NNE7.9 kmh NNE 4.9 mph7.9 kmh 30.03 in1016.9 mb 0.00 in0.0 mm 0.00 in0.0 mm 0.00 in0.0 mm
08:20 AM 60.1°F15.6°C 53.2°F11.8°C 78% 1.9 mph N3.1 kmh N 4.9 mph7.9 kmh 30.02 in1016.6 mb 0.00 in0.0 mm 0.00 in0.0 mm 0.00 in0.0 mm
08:30 AM 60.3°F15.7°C 53.0°F11.7°C 77% 2.8 mph ENE4.5 kmh ENE 6.6 mph10.6 kmh 30.02 in1016.6 mb 0.00 in0.0 mm 0.00 in0.0 mm 0.00 in0.0 mm
08:40 AM 60.4°F15.8°C 52.8°F11.6°C 76% 4.4 mph NE7.1 kmh NE 5.9 mph9.5 kmh 30.02 in1016.6 mb 0.00 in0.0 mm 0.00 in0.0 mm 0.00 in0.0 mm
08:50 AM 60.8°F16.0°C 53.2°F11.8°C 76% 3.1 mph E5.0 kmh E 5.9 mph9.5 kmh 30.02 in1016.6 mb 0.00 in0.0 mm 0.00 in0.0 mm 0.00 in0.0 mm
09:00 AM 61.0°F16.1°C 53.4°F11.9°C 76% 3.6 mph E5.8 kmh E 5.9 mph9.5 kmh 30.01 in1016.3 mb 0.00 in0.0 mm 0.00 in0.0 mm 0.00 in0.0 mm
09:10 AM 61.5°F16.4°C 53.9°F12.2°C 76% 2.3 mph NNE3.7 kmh NNE 3.4 mph5.5 kmh 30.02 in1016.6 mb 0.00 in0.0 mm 0.00 in0.0 mm 0.00 in0.0 mm
09:20 AM 63.5°F17.5°C 54.3°F12.4°C 72% 3.2 mph NNE5.1 kmh NNE 5.9 mph9.5 kmh 30.01 in1016.3 mb 0.00 in0.0 mm 0.00 in0.0 mm 0.00 in0.0 mm
09:30 AM 66.2°F19.0°C 54.5°F12.5°C 66% 2.0 mph NNW3.2 kmh NNW 4.2 mph6.8 kmh 30.00 in1015.9 mb 0.00 in0.0 mm 0.00 in0.0 mm 0.00 in0.0 mm
09:40 AM 67.3°F19.6°C 53.4°F11.9°C 61% 3.1 mph E5.0 kmh E 5.9 mph9.5 kmh 30.00 in1015.9 mb 0.00 in0.0 mm 0.00 in0.0 mm 0.00 in0.0 mm
09:50 AM 67.8°F19.9°C 53.4°F11.9°C 60% 3.2 mph NW5.1 kmh NW 4.9 mph7.9 kmh 30.00 in1015.9 mb 0.00 in0.0 mm 0.00 in0.0 mm 0.00 in0.0 mm
10:00 AM 68.5°F20.3°C 53.2°F11.8°C 58% 2.9 mph WNW4.7 kmh WNW 5.9 mph9.5 kmh 29.99 in1015.6 mb 0.00 in0.0 mm 0.00 in0.0 mm 0.00 in0.0 mm
10:10 AM 69.4°F20.8°C 53.5°F11.9°C 57% 3.9 mph NW6.3 kmh NW 5.9 mph9.5 kmh 29.99 in1015.6 mb 0.00 in0.0 mm 0.00 in0.0 mm 0.00 in0.0 mm
10:20 AM 68.9°F20.5°C 53.0°F11.7°C 57% 2.6 mph NNW4.2 kmh NNW 4.2 mph6.8 kmh 29.99 in1015.6 mb 0.00 in0.0 mm 0.00 in0.0 mm 0.00 in0.0 mm
10:30 AM 69.3°F20.7°C 53.4°F11.9°C 57% 2.9 mph N4.7 kmh N 4.2 mph6.8 kmh 29.98 in1015.2 mb 0.00 in0.0 mm 0.00 in0.0 mm 0.00 in0.0 mm
10:40 AM 69.8°F21.0°C 53.4°F11.9°C 56% 4.2 mph NNE6.8 kmh NNE 4.9 mph7.9 kmh 29.98 in1015.2 mb 0.00 in0.0 mm 0.00 in0.0 mm 0.00 in0.0 mm
10:50 AM 71.2°F21.8°C 54.7°F12.6°C 56% 3.4 mph N5.5 kmh N 4.2 mph6.8 kmh 29.96 in1014.6 mb 0.00 in0.0 mm 0.00 in0.0 mm 0.00 in0.0 mm
11:00 AM 71.4°F21.9°C 55.4°F13.0°C 57% 3.0 mph N4.8 kmh N 4.2 mph6.8 kmh 29.97 in1014.9 mb 0.00 in0.0 mm 0.00 in0.0 mm 0.00 in0.0 mm
11:10 AM 71.6°F22.0°C 53.6°F12.0°C 53% 3.1 mph N5.0 kmh N 5.9 mph9.5 kmh 29.97 in1014.9 mb 0.00 in0.0 mm 0.00 in0.0 mm 0.00 in0.0 mm
11:20 AM 71.1°F21.7°C 54.6°F12.6°C 56% 3.5 mph N5.6 kmh N 4.9 mph7.9 kmh 29.96 in1014.6 mb 0.00 in0.0 mm 0.00 in0.0 mm 0.00 in0.0 mm
11:30 AM 72.0°F22.2°C 53.4°F11.9°C 52% 2.7 mph N4.3 kmh N 4.9 mph7.9 kmh 29.95 in1014.2 mb 0.00 in0.0 mm 0.00 in0.0 mm 0.00 in0.0 mm
11:40 AM 72.3°F22.4°C 54.2°F12.3°C 53% 4.0 mph N6.4 kmh N 7.6 mph12.2 kmh 29.95 in1014.2 mb 0.00 in0.0 mm 0.00 in0.0 mm 0.00 in0.0 mm
11:50 AM 72.1°F22.3°C 53.0°F11.7°C 51% 4.5 mph N7.2 kmh N 7.6 mph12.2 kmh 29.95 in1014.2 mb 0.00 in0.0 mm 0.00 in0.0 mm 0.00 in0.0 mm
12:00 PM 72.7°F22.6°C 54.0°F12.2°C 52% 3.2 mph N5.1 kmh N 4.9 mph7.9 kmh 29.94 in1013.9 mb 0.00 in0.0 mm 0.00 in0.0 mm 0.00 in0.0 mm
12:10 PM 72.5°F22.5°C 53.9°F12.2°C 52% 4.1 mph NE6.6 kmh NE 5.9 mph9.5 kmh 29.94 in1013.9 mb 0.00 in0.0 mm 0.00 in0.0 mm 0.00 in0.0 mm
12:20 PM 71.1°F21.7°C 55.1°F12.8°C 57% 6.0 mph NNE9.7 kmh NNE 9.1 mph14.6 kmh 29.94 in1013.9 mb 0.00 in0.0 mm 0.00 in0.0 mm 0.00 in0.0 mm
12:30 PM 70.2°F21.2°C 55.6°F13.1°C 60% 4.5 mph NNE7.2 kmh NNE 5.9 mph9.5 kmh 29.93 in1013.5 mb 0.00 in0.0 mm 0.00 in0.0 mm 0.00 in0.0 mm
12:40 PM 70.9°F21.6°C 56.3°F13.5°C 60% 4.5 mph N7.2 kmh N 5.9 mph9.5 kmh 29.93 in1013.5 mb 0.00 in0.0 mm 0.00 in0.0 mm 0.00 in0.0 mm
12:50 PM 70.7°F21.5°C 55.7°F13.2°C 59% 2.9 mph N4.7 kmh N 4.9 mph7.9 kmh 29.93 in1013.5 mb 0.00 in0.0 mm 0.00 in0.0 mm 0.00 in0.0 mm
01:00 PM 70.3°F21.3°C 54.4°F12.4°C 57% 4.9 mph N7.9 kmh N 5.9 mph9.5 kmh 29.93 in1013.5 mb 0.00 in0.0 mm 0.00 in0.0 mm 0.00 in0.0 mm
01:10 PM 70.2°F21.2°C 54.2°F12.3°C 57% 4.3 mph N6.9 kmh N 6.6 mph10.6 kmh 29.92 in1013.2 mb 0.00 in0.0 mm 0.00 in0.0 mm 0.00 in0.0 mm
01:20 PM 70.0°F21.1°C 55.0°F12.8°C 59% 4.0 mph NNE6.4 kmh NNE 4.9 mph7.9 kmh 29.92 in1013.2 mb 0.00 in0.0 mm 0.00 in0.0 mm 0.00 in0.0 mm
01:30 PM 68.9°F20.5°C 54.4°F12.4°C 60% 4.7 mph NW7.6 kmh NW 5.9 mph9.5 kmh 29.92 in1013.2 mb 0.00 in0.0 mm 0.00 in0.0 mm 0.00 in0.0 mm
01:40 PM 69.3°F20.7°C 54.8°F12.7°C 60% 4.0 mph N6.4 kmh N 5.9 mph9.5 kmh 29.91 in1012.9 mb 0.00 in0.0 mm 0.00 in0.0 mm 0.00 in0.0 mm
01:50 PM 68.5°F20.3°C 54.6°F12.6°C 61% 5.0 mph N8.0 kmh N 6.6 mph10.6 kmh 29.91 in1012.9 mb 0.00 in0.0 mm 0.00 in0.0 mm 0.00 in0.0 mm
02:00 PM 68.0°F20.0°C 54.5°F12.5°C 62% 4.7 mph NNE7.6 kmh NNE 4.9 mph7.9 kmh 29.91 in1012.9 mb 0.00 in0.0 mm 0.00 in0.0 mm 0.00 in0.0 mm
02:10 PM 67.8°F19.9°C 54.8°F12.7°C 63% 3.7 mph N6.0 kmh N 5.9 mph9.5 kmh 29.90 in1012.5 mb 0.00 in0.0 mm 0.00 in0.0 mm 0.00 in0.0 mm
02:20 PM 67.6°F19.8°C 54.6°F12.6°C 63% 4.7 mph NNW7.6 kmh NNW 7.6 mph12.2 kmh 29.89 in1012.2 mb 0.00 in0.0 mm 0.00 in0.0 mm 0.00 in0.0 mm
02:30 PM 67.5°F19.7°C 54.4°F12.4°C 63% 3.4 mph N5.5 kmh N 5.9 mph9.5 kmh 29.89 in1012.2 mb 0.00 in0.0 mm 0.00 in0.0 mm 0.00 in0.0 mm
02:40 PM 67.1°F19.5°C 54.5°F12.5°C 64% 5.5 mph S8.9 kmh S 7.6 mph12.2 kmh 29.89 in1012.2 mb 0.00 in0.0 mm 0.00 in0.0 mm 0.00 in0.0 mm
02:50 PM 66.7°F19.3°C 54.2°F12.3°C 64% 4.0 mph NNW6.4 kmh NNW 9.1 mph14.6 kmh 29.88 in1011.9 mb 0.00 in0.0 mm 0.00 in0.0 mm 0.00 in0.0 mm
03:00 PM 66.2°F19.0°C 54.5°F12.5°C 66% 5.0 mph NW8.0 kmh NW 9.1 mph14.6 kmh 29.88 in1011.9 mb 0.00 in0.0 mm 0.00 in0.0 mm 0.00 in0.0 mm
03:10 PM 66.2°F19.0°C 54.9°F12.7°C 67% 3.9 mph N6.3 kmh N 6.6 mph10.6 kmh 29.88 in1011.9 mb 0.00 in0.0 mm 0.00 in0.0 mm 0.00 in0.0 mm
03:20 PM 65.8°F18.8°C 54.6°F12.6°C 67% 5.1 mph NNW8.2 kmh NNW 5.9 mph9.5 kmh 29.87 in1011.5 mb 0.00 in0.0 mm 0.00 in0.0 mm 0.00 in0.0 mm
03:30 PM 65.3°F18.5°C 54.5°F12.5°C 68% 4.8 mph NNE7.7 kmh NNE 5.9 mph9.5 kmh 29.87 in1011.5 mb 0.00 in0.0 mm 0.00 in0.0 mm 0.00 in0.0 mm
03:40 PM 64.8°F18.2°C 54.3°F12.4°C 69% 4.5 mph WNW7.2 kmh WNW 5.9 mph9.5 kmh 29.87 in1011.5 mb 0.00 in0.0 mm 0.00 in0.0 mm 0.00 in0.0 mm
03:50 PM 64.2°F17.9°C 54.2°F12.3°C 70% 4.6 mph NW7.4 kmh NW 6.6 mph10.6 kmh 29.87 in1011.5 mb 0.00 in0.0 mm 0.00 in0.0 mm 0.00 in0.0 mm
04:00 PM 64.0°F17.8°C 54.1°F12.3°C 70% 4.4 mph N7.1 kmh N 7.6 mph12.2 kmh 29.86 in1011.2 mb 0.00 in0.0 mm 0.00 in0.0 mm 0.00 in0.0 mm
04:10 PM 64.0°F17.8°C 54.1°F12.3°C 70% 3.1 mph WNW5.0 kmh WNW 3.4 mph5.5 kmh 29.86 in1011.2 mb 0.00 in0.0 mm 0.00 in0.0 mm 0.00 in0.0 mm
04:20 PM 63.9°F17.7°C 53.9°F12.2°C 70% 3.4 mph NW5.5 kmh NW 4.9 mph7.9 kmh 29.86 in1011.2 mb 0.00 in0.0 mm 0.00 in0.0 mm 0.00 in0.0 mm
04:30 PM 63.7°F17.6°C 53.7°F12.1°C 70% 3.3 mph NNE5.3 kmh NNE 4.2 mph6.8 kmh 29.85 in1010.8 mb 0.00 in0.0 mm 0.00 in0.0 mm 0.00 in0.0 mm
04:40 PM 63.7°F17.6°C 53.3°F11.8°C 69% 3.2 mph NE5.1 kmh NE 4.2 mph6.8 kmh 29.85 in1010.8 mb 0.00 in0.0 mm 0.00 in0.0 mm 0.00 in0.0 mm
04:50 PM 63.7°F17.6°C 52.9°F11.6°C 68% 3.3 mph N5.3 kmh N 5.9 mph9.5 kmh 29.85 in1010.8 mb 0.00 in0.0 mm 0.00 in0.0 mm 0.00 in0.0 mm
05:00 PM 63.5°F17.5°C 52.7°F11.5°C 68% 2.8 mph N4.5 kmh N 4.2 mph6.8 kmh 29.84 in1010.5 mb 0.00 in0.0 mm 0.00 in0.0 mm 0.00 in0.0 mm
05:10 PM 63.3°F17.4°C 52.6°F11.4°C 68% 3.7 mph SW6.0 kmh SW 8.4 mph13.5 kmh 29.84 in1010.5 mb 0.00 in0.0 mm 0.00 in0.0 mm 0.00 in0.0 mm
05:20 PM 63.3°F17.4°C 51.3°F10.7°C 65% 2.8 mph NNW4.5 kmh NNW 7.6 mph12.2 kmh 29.85 in1010.8 mb 0.00 in0.0 mm 0.00 in0.0 mm 0.00 in0.0 mm
05:30 PM 63.1°F17.3°C 51.2°F10.7°C 65% 3.1 mph NNE5.0 kmh NNE 7.6 mph12.2 kmh 29.85 in1010.8 mb 0.00 in0.0 mm 0.00 in0.0 mm 0.00 in0.0 mm
05:40 PM 62.8°F17.1°C 51.7°F10.9°C 67% 3.2 mph W5.1 kmh W 4.9 mph7.9 kmh 29.84 in1010.5 mb 0.00 in0.0 mm 0.00 in0.0 mm 0.00 in0.0 mm
05:50 PM 62.2°F16.8°C 52.7°F11.5°C 71% 3.8 mph NW6.1 kmh NW 6.6 mph10.6 kmh 29.85 in1010.8 mb 0.00 in0.0 mm 0.00 in0.0 mm 0.00 in0.0 mm
06:00 PM 62.1°F16.7°C 52.9°F11.6°C 72% 2.8 mph NNW4.5 kmh NNW 6.6 mph10.6 kmh 29.84 in1010.5 mb 0.00 in0.0 mm 0.00 in0.0 mm 0.00 in0.0 mm
06:10 PM 61.7°F16.5°C 52.6°F11.4°C 72% 4.5 mph N7.2 kmh N 6.6 mph10.6 kmh 29.84 in1010.5 mb 0.00 in0.0 mm 0.00 in0.0 mm 0.00 in0.0 mm
06:20 PM 61.3°F16.3°C 52.6°F11.4°C 73% 3.1 mph NW5.0 kmh NW 7.6 mph12.2 kmh 29.84 in1010.5 mb 0.00 in0.0 mm 0.00 in0.0 mm 0.00 in0.0 mm
06:30 PM 61.2°F16.2°C 52.4°F11.3°C 73% 2.3 mph NNW3.7 kmh NNW 5.9 mph9.5 kmh 29.84 in1010.5 mb 0.00 in0.0 mm 0.00 in0.0 mm 0.00 in0.0 mm
06:40 PM 61.0°F16.1°C 52.3°F11.3°C 73% 2.8 mph ENE4.5 kmh ENE 4.9 mph7.9 kmh 29.84 in1010.5 mb 0.00 in0.0 mm 0.00 in0.0 mm 0.00 in0.0 mm
06:50 PM 61.0°F16.1°C 52.3°F11.3°C 73% 1.7 mph NW2.7 kmh NW 4.2 mph6.8 kmh 29.84 in1010.5 mb 0.00 in0.0 mm 0.00 in0.0 mm 0.00 in0.0 mm
07:00 PM 60.8°F16.0°C 52.1°F11.2°C 73% 1.7 mph S2.7 kmh S 4.9 mph7.9 kmh 29.84 in1010.5 mb 0.00 in0.0 mm 0.00 in0.0 mm 0.00 in0.0 mm
07:10 PM 60.8°F16.0°C 51.7°F10.9°C 72% 3.8 mph SSW6.1 kmh SSW 8.4 mph13.5 kmh 29.84 in1010.5 mb 0.00 in0.0 mm 0.00 in0.0 mm 0.00 in0.0 mm
07:20 PM 60.8°F16.0°C 51.7°F10.9°C 72% 4.1 mph NE6.6 kmh NE 5.9 mph9.5 kmh 29.84 in1010.5 mb 0.00 in0.0 mm 0.00 in0.0 mm 0.00 in0.0 mm
07:30 PM 60.8°F16.0°C 51.7°F10.9°C 72% 3.3 mph W5.3 kmh W 4.9 mph7.9 kmh 29.84 in1010.5 mb 0.00 in0.0 mm 0.00 in0.0 mm 0.00 in0.0 mm
07:40 PM 60.6°F15.9°C 51.5°F10.8°C 72% 2.9 mph SSE4.7 kmh SSE 5.9 mph9.5 kmh 29.84 in1010.5 mb 0.00 in0.0 mm 0.00 in0.0 mm 0.00 in0.0 mm
07:50 PM 60.4°F15.8°C 51.4°F10.8°C 72% 2.1 mph N3.4 kmh N 5.9 mph9.5 kmh 29.84 in1010.5 mb 0.00 in0.0 mm 0.00 in0.0 mm 0.00 in0.0 mm
08:00 PM 60.3°F15.7°C 51.2°F10.7°C 72% 1.3 mph NW2.1 kmh NW 3.4 mph5.5 kmh 29.83 in1010.2 mb 0.00 in0.0 mm 0.00 in0.0 mm 0.00 in0.0 mm
08:10 PM 60.1°F15.6°C 51.0°F10.6°C 72% 1.6 mph WSW2.6 kmh WSW 3.4 mph5.5 kmh 29.83 in1010.2 mb 0.00 in0.0 mm 0.00 in0.0 mm 0.00 in0.0 mm
08:20 PM 59.9°F15.5°C 51.2°F10.7°C 73% 1.6 mph NE2.6 kmh NE 4.2 mph6.8 kmh 29.82 in1009.8 mb 0.00 in0.0 mm 0.00 in0.0 mm 0.00 in0.0 mm
08:30 PM 59.9°F15.5°C 51.2°F10.7°C 73% 1.5 mph NW2.4 kmh NW 4.2 mph6.8 kmh 29.83 in1010.2 mb 0.00 in0.0 mm 0.00 in0.0 mm 0.00 in0.0 mm
08:40 PM 59.9°F15.5°C 51.2°F10.7°C 73% 1.9 mph NE3.1 kmh NE 4.9 mph7.9 kmh 29.82 in1009.8 mb 0.00 in0.0 mm 0.00 in0.0 mm 0.00 in0.0 mm
08:50 PM 59.9°F15.5°C 51.6°F10.9°C 74% 2.6 mph NW4.2 kmh NW 6.6 mph10.6 kmh 29.82 in1009.8 mb 0.00 in0.0 mm 0.00 in0.0 mm 0.00 in0.0 mm
09:00 PM 59.9°F15.5°C 51.6°F10.9°C 74% 2.2 mph N3.5 kmh N 4.9 mph7.9 kmh 29.81 in1009.5 mb 0.00 in0.0 mm 0.00 in0.0 mm 0.00 in0.0 mm
09:10 PM 59.9°F15.5°C 52.0°F11.1°C 75% 1.7 mph SW2.7 kmh SW 3.4 mph5.5 kmh 29.82 in1009.8 mb 0.00 in0.0 mm 0.00 in0.0 mm 0.00 in0.0 mm
09:20 PM 59.9°F15.5°C 52.3°F11.3°C 76% 1.5 mph NW2.4 kmh NW 4.2 mph6.8 kmh 29.81 in1009.5 mb 0.00 in0.0 mm 0.00 in0.0 mm 0.00 in0.0 mm
09:30 PM 59.9°F15.5°C 52.7°F11.5°C 77% 1.8 mph NW2.9 kmh NW 4.2 mph6.8 kmh 29.80 in1009.1 mb 0.00 in0.0 mm 0.00 in0.0 mm 0.00 in0.0 mm
09:40 PM 59.9°F15.5°C 52.7°F11.5°C 77% 1.1 mph NNW1.8 kmh NNW 4.2 mph6.8 kmh 29.80 in1009.1 mb 0.00 in0.0 mm 0.00 in0.0 mm 0.00 in0.0 mm
09:50 PM 60.1°F15.6°C 53.2°F11.8°C 78% 1.1 mph NW1.8 kmh NW 3.4 mph5.5 kmh 29.80 in1009.1 mb 0.00 in0.0 mm 0.00 in0.0 mm 0.00 in0.0 mm
10:00 PM 59.9°F15.5°C 53.4°F11.9°C 79% 0.8 mph NW1.3 kmh NW 2.5 mph4.0 kmh 29.79 in1008.8 mb 0.00 in0.0 mm 0.00 in0.0 mm 0.00 in0.0 mm
10:10 PM 59.9°F15.5°C 53.7°F12.1°C 80% 0.7 mph N1.1 kmh N 2.5 mph4.0 kmh 29.79 in1008.8 mb 0.00 in0.0 mm 0.00 in0.0 mm 0.00 in0.0 mm
10:20 PM 59.9°F15.5°C 53.7°F12.1°C 80% 1.3 mph NW2.1 kmh NW 2.5 mph4.0 kmh 29.79 in1008.8 mb 0.00 in0.0 mm 0.00 in0.0 mm 0.00 in0.0 mm
10:30 PM 59.7°F15.4°C 53.5°F11.9°C 80% 0.7 mph W1.1 kmh W 1.7 mph2.7 kmh 29.78 in1008.5 mb 0.00 in0.0 mm 0.00 in0.0 mm 0.00 in0.0 mm
10:40 PM 59.9°F15.5°C 53.7°F12.1°C 80% 0.6 mph WNW1.0 kmh WNW 2.5 mph4.0 kmh 29.78 in1008.5 mb 0.00 in0.0 mm 0.00 in0.0 mm 0.00 in0.0 mm
10:50 PM 59.9°F15.5°C 53.7°F12.1°C 80% 1.4 mph N2.3 kmh N 3.4 mph5.5 kmh 29.78 in1008.5 mb 0.00 in0.0 mm 0.00 in0.0 mm 0.00 in0.0 mm
11:00 PM 60.1°F15.6°C 53.9°F12.2°C 80% 1.6 mph ESE2.6 kmh ESE 3.4 mph5.5 kmh 29.77 in1008.1 mb 0.00 in0.0 mm 0.00 in0.0 mm 0.00 in0.0 mm
11:10 PM 60.3°F15.7°C 54.1°F12.3°C 80% 2.5 mph NW4.0 kmh NW 4.9 mph7.9 kmh 29.78 in1008.5 mb 0.00 in0.0 mm 0.00 in0.0 mm 0.00 in0.0 mm
11:20 PM 60.4°F15.8°C 54.2°F12.3°C 80% 1.7 mph SSW2.7 kmh SSW 4.2 mph6.8 kmh 29.77 in1008.1 mb 0.00 in0.0 mm 0.00 in0.0 mm 0.00 in0.0 mm
11:30 PM 60.4°F15.8°C 54.2°F12.3°C 80% 2.7 mph NNW4.3 kmh NNW 4.2 mph6.8 kmh 29.76 in1007.8 mb 0.00 in0.0 mm 0.00 in0.0 mm 0.00 in0.0 mm
11:40 PM 60.6°F15.9°C 54.4°F12.4°C 80% 2.4 mph SW3.9 kmh SW 3.4 mph5.5 kmh 29.76 in1007.8 mb 0.00 in0.0 mm 0.00 in0.0 mm 0.00 in0.0 mm
11:50 PM 60.6°F15.9°C 54.4°F12.4°C 80% 2.2 mph SE3.5 kmh SE 4.9 mph7.9 kmh 29.76 in1007.8 mb 0.00 in0.0 mm 0.00 in0.0 mm 0.00 in0.0 mm